Time,TemperatureF,DewpointF,PressureIn,WindDirection,WindDirectionDegrees,WindSpeedMPH,WindSpeedGustMPH,Humidity,HourlyPrecipIn,Conditions,Clouds,dailyrainin,SoftwareType,DateUTC
2013-06-30 00:01:00,62.8,55.5,28.82,NNE,32,0.0,0.0,77,0.00,,,0.00,VWS V14.00,2013-06-30 04:01:00,
2013-06-30 00:06:00,62.6,55.7,28.82,NNE,32,0.0,0.0,78,0.00,,,0.00,VWS V14.00,2013-06-30 04:06:00,
2013-06-30 00:11:00,62.6,55.7,28.82,NNE,32,0.0,0.0,78,0.00,,,0.00,VWS V14.00,2013-06-30 04:11:00,
2013-06-30 00:16:00,62.6,55.7,28.82,NNE,32,0.0,0.0,78,0.00,,,0.00,VWS V14.00,2013-06-30 04:16:00,
2013-06-30 00:21:00,62.6,56.0,28.82,NNE,32,0.0,0.0,79,0.00,,,0.00,VWS V14.00,2013-06-30 04:21:00,
2013-06-30 00:26:00,62.6,55.7,28.82,NNE,32,0.0,0.0,78,0.00,,,0.00,VWS V14.00,2013-06-30 04:26:00,
2013-06-30 00:31:00,62.4,55.8,28.82,NE,34,0.0,0.0,79,0.00,,,0.00,VWS V14.00,2013-06-30 04:31:00,
2013-06-30 00:36:00,62.4,56.2,28.82,NE,34,0.0,0.0,80,0.00,,,0.00,VWS V14.00,2013-06-30 04:36:00,
2013-06-30 00:41:00,62.2,56.3,28.82,NE,34,0.0,0.0,81,0.00,,,0.00,VWS V14.00,2013-06-30 04:41:00,
2013-06-30 00:46:00,62.4,56.2,28.79,NNE,33,0.0,2.7,80,0.00,,,0.00,VWS V14.00,2013-06-30 04:46:00,
2013-06-30 00:52:00,62.4,56.5,28.79,NNE,33,0.0,2.7,81,0.00,,,0.00,VWS V14.00,2013-06-30 04:52:00,
2013-06-30 00:56:00,62.4,56.9,28.79,NE,41,0.0,4.0,82,0.00,,,0.00,VWS V14.00,2013-06-30 04:56:00,
2013-06-30 01:01:00,63.0,56.3,28.82,NE,47,0.0,6.3,79,0.00,,,0.00,VWS V14.00,2013-06-30 05:01:00,
2013-06-30 01:07:00,62.6,56.7,28.82,NE,47,0.0,6.3,81,0.00,,,0.00,VWS V14.00,2013-06-30 05:07:00,
2013-06-30 01:14:00,62.2,56.7,28.82,North,7,0.0,0.0,82,0.00,,,0.00,VWS V14.00,2013-06-30 05:14:00,
2013-06-30 01:19:00,62.6,56.7,28.82,North,0,0.0,5.4,81,0.00,,,0.00,VWS V14.00,2013-06-30 05:19:00,
2013-06-30 01:24:00,62.4,56.5,28.82,NE,44,0.0,5.4,81,0.00,,,0.00,VWS V14.00,2013-06-30 05:24:00,
2013-06-30 01:29:00,62.2,56.7,28.82,NE,44,0.0,5.4,82,0.00,,,0.00,VWS V14.00,2013-06-30 05:29:00,
2013-06-30 01:34:00,62.1,56.5,28.82,NE,44,0.0,0.0,82,0.00,,,0.00,VWS V14.00,2013-06-30 05:34:00,
2013-06-30 01:39:00,61.9,56.7,28.82,NE,44,0.0,0.0,83,0.00,,,0.00,VWS V14.00,2013-06-30 05:39:00,
2013-06-30 01:44:00,61.9,56.7,28.82,NNE,27,0.0,2.7,83,0.00,,,0.00,VWS V14.00,2013-06-30 05:44:00,
2013-06-30 01:49:00,61.9,56.7,28.82,NNE,24,0.0,3.6,83,0.00,,,0.00,VWS V14.00,2013-06-30 05:49:00,
2013-06-30 01:54:00,61.9,56.7,28.82,NE,42,4.9,4.9,83,0.00,,,0.00,VWS V14.00,2013-06-30 05:54:00,
2013-06-30 01:59:00,61.9,56.7,28.82,NNE,14,2.7,4.9,83,0.00,,,0.00,VWS V14.00,2013-06-30 05:59:00,
2013-06-30 02:04:00,62.1,56.8,28.82,NE,34,0.0,5.4,83,0.00,,,0.00,VWS V14.00,2013-06-30 06:04:00,
2013-06-30 02:09:00,61.9,56.7,28.82,NE,37,0.0,5.4,83,0.00,,,0.00,VWS V14.00,2013-06-30 06:09:00,
2013-06-30 02:15:00,61.7,56.5,28.82,NNE,28,0.0,5.4,83,0.00,,,0.00,VWS V14.00,2013-06-30 06:15:00,
2013-06-30 02:20:00,61.9,56.7,28.82,NNE,22,0.0,5.4,83,0.00,,,0.00,VWS V14.00,2013-06-30 06:20:00,
2013-06-30 02:25:00,61.9,56.7,28.82,NNE,23,0.0,5.4,83,0.00,,,0.00,VWS V14.00,2013-06-30 06:25:00,
2013-06-30 02:30:00,61.9,56.7,28.82,NNE,31,0.0,5.4,83,0.00,,,0.00,VWS V14.00,2013-06-30 06:30:00,
2013-06-30 02:35:00,61.7,56.5,28.82,NNE,31,0.0,0.0,83,0.00,,,0.00,VWS V14.00,2013-06-30 06:35:00,
2013-06-30 02:40:00,61.9,56.7,28.82,NNE,32,0.0,3.1,83,0.00,,,0.00,VWS V14.00,2013-06-30 06:40:00,
2013-06-30 02:45:00,61.7,56.5,28.82,NNE,32,0.0,3.1,83,0.00,,,0.00,VWS V14.00,2013-06-30 06:45:00,
2013-06-30 02:50:00,61.5,56.3,28.82,NNE,32,0.0,3.1,83,0.00,,,0.00,VWS V14.00,2013-06-30 06:50:00,
2013-06-30 02:55:00,61.3,56.5,28.82,NNE,32,0.0,3.1,84,0.00,,,0.00,VWS V14.00,2013-06-30 06:55:00,
2013-06-30 03:00:00,61.2,56.3,28.82,NNE,32,0.0,3.1,84,0.00,,,0.00,VWS V14.00,2013-06-30 07:00:00,
2013-06-30 03:05:00,61.0,56.5,28.82,NNE,32,0.0,0.0,85,0.00,,,0.00,VWS V14.00,2013-06-30 07:05:00,
2013-06-30 03:10:00,61.0,56.5,28.82,NNE,32,0.0,0.0,85,0.00,,,0.00,VWS V14.00,2013-06-30 07:10:00,
2013-06-30 03:15:00,60.8,56.6,28.82,NNE,32,0.0,0.0,86,0.00,,,0.00,VWS V14.00,2013-06-30 07:15:00,
2013-06-30 03:20:00,60.6,56.7,28.82,NNE,32,0.0,0.0,87,0.00,,,0.00,VWS V14.00,2013-06-30 07:20:00,
2013-06-30 03:25:00,60.6,57.0,28.82,NNE,32,0.0,0.0,88,0.00,,,0.00,VWS V14.00,2013-06-30 07:25:00,
2013-06-30 03:30:00,60.6,57.0,28.82,NNE,32,0.0,0.0,88,0.00,,,0.00,VWS V14.00,2013-06-30 07:30:00,
2013-06-30 03:35:00,60.6,57.0,28.82,NNE,32,0.0,0.0,88,0.00,,,0.00,VWS V14.00,2013-06-30 07:35:00,
2013-06-30 03:40:00,60.6,57.7,28.82,NNE,32,0.0,0.0,90,0.00,,,0.00,VWS V14.00,2013-06-30 07:40:00,
2013-06-30 03:45:00,60.6,57.7,28.82,NNE,32,0.0,0.0,90,0.00,,,0.00,VWS V14.00,2013-06-30 07:45:00,
2013-06-30 03:50:00,60.6,58.0,28.82,NNE,32,0.0,0.0,91,0.00,,,0.00,VWS V14.00,2013-06-30 07:50:00,
2013-06-30 03:55:00,60.6,58.0,28.82,NNE,32,0.0,0.0,91,0.00,,,0.00,VWS V14.00,2013-06-30 07:55:00,
2013-06-30 04:00:00,60.6,58.0,28.82,NNE,32,0.0,0.0,91,0.00,,,0.00,VWS V14.00,2013-06-30 08:00:00,
2013-06-30 04:05:00,60.6,58.0,28.82,NNE,32,0.0,0.0,91,0.00,,,0.00,VWS V14.00,2013-06-30 08:05:00,
2013-06-30 04:10:00,60.6,58.0,28.82,NNE,32,0.0,0.0,91,0.00,,,0.00,VWS V14.00,2013-06-30 08:10:00,
2013-06-30 04:15:00,60.6,58.3,28.85,NNE,32,0.0,0.0,92,0.00,,,0.00,VWS V14.00,2013-06-30 08:15:00,
2013-06-30 04:20:00,60.6,58.3,28.85,NNE,32,0.0,0.0,92,0.00,,,0.00,VWS V14.00,2013-06-30 08:20:00,
2013-06-30 04:25:00,60.4,58.4,28.85,NNE,32,0.0,0.0,93,0.00,,,0.00,VWS V14.00,2013-06-30 08:25:00,
2013-06-30 04:30:00,60.4,58.4,28.82,NNE,32,0.0,0.0,93,0.00,,,0.00,VWS V14.00,2013-06-30 08:30:00,
2013-06-30 04:35:00,60.4,58.4,28.82,NNE,32,0.0,0.0,93,0.00,,,0.00,VWS V14.00,2013-06-30 08:35:00,
2013-06-30 04:40:00,60.4,58.4,28.82,NNE,32,0.0,0.0,93,0.00,,,0.00,VWS V14.00,2013-06-30 08:40:00,
2013-06-30 04:45:00,60.4,58.4,28.85,NNE,32,0.0,0.0,93,0.00,,,0.00,VWS V14.00,2013-06-30 08:45:00,
2013-06-30 04:50:00,60.4,58.1,28.85,NNE,32,0.0,0.0,92,0.00,,,0.00,VWS V14.00,2013-06-30 08:50:00,
2013-06-30 04:55:00,60.4,58.1,28.85,NNE,32,0.0,0.0,92,0.00,,,0.00,VWS V14.00,2013-06-30 08:55:00,
2013-06-30 05:00:00,60.4,58.4,28.85,NNE,32,0.0,0.0,93,0.00,,,0.00,VWS V14.00,2013-06-30 09:00:00,
2013-06-30 05:05:00,60.4,58.4,28.85,NNE,32,0.0,0.0,93,0.00,,,0.00,VWS V14.00,2013-06-30 09:05:00,
2013-06-30 05:10:00,60.3,58.2,28.85,NNE,32,0.0,0.0,93,0.00,,,0.00,VWS V14.00,2013-06-30 09:10:00,
2013-06-30 05:15:00,60.3,58.2,28.85,NNE,32,0.0,0.0,93,0.00,,,0.00,VWS V14.00,2013-06-30 09:15:00,
2013-06-30 05:20:00,60.3,58.2,28.85,NNE,32,0.0,0.0,93,0.00,,,0.00,VWS V14.00,2013-06-30 09:20:00,
2013-06-30 05:25:00,60.1,58.0,28.85,NNE,32,0.0,0.0,93,0.00,,,0.00,VWS V14.00,2013-06-30 09:25:00,
2013-06-30 05:30:00,60.1,58.0,28.85,NNE,32,0.0,0.0,93,0.00,,,0.00,VWS V14.00,2013-06-30 09:30:00,
2013-06-30 05:35:00,60.1,58.0,28.85,NNE,32,0.0,0.0,93,0.00,,,0.00,VWS V14.00,2013-06-30 09:35:00,
2013-06-30 05:40:00,60.1,58.3,28.85,NNE,32,0.0,0.0,94,0.00,,,0.00,VWS V14.00,2013-06-30 09:40:00,
2013-06-30 05:45:00,60.1,58.3,28.85,NNE,32,0.0,0.0,94,0.00,,,0.00,VWS V14.00,2013-06-30 09:45:00,
2013-06-30 05:50:00,59.9,58.2,28.85,NNE,32,0.0,0.0,94,0.00,,,0.00,VWS V14.00,2013-06-30 09:50:00,
2013-06-30 05:55:00,59.9,58.2,28.85,NNE,32,0.0,0.0,94,0.00,,,0.00,VWS V14.00,2013-06-30 09:55:00,
2013-06-30 06:00:00,59.9,58.2,28.85,NNE,32,0.0,0.0,94,0.00,,,0.00,VWS V14.00,2013-06-30 10:00:00,
2013-06-30 06:05:00,59.9,58.2,28.85,NNE,32,0.0,0.0,94,0.00,,,0.00,VWS V14.00,2013-06-30 10:05:00,
2013-06-30 06:10:00,59.9,57.9,28.85,NNE,32,0.0,0.0,93,0.00,,,0.00,VWS V14.00,2013-06-30 10:10:00,
2013-06-30 06:15:00,60.1,58.3,28.85,NNE,32,0.0,0.0,94,0.00,,,0.00,VWS V14.00,2013-06-30 10:15:00,
2013-06-30 06:21:00,60.1,58.3,28.85,NNE,32,0.0,0.0,94,0.00,,,0.00,VWS V14.00,2013-06-30 10:21:00,
2013-06-30 06:26:00,60.1,58.3,28.85,NNE,32,0.0,0.0,94,0.00,,,0.00,VWS V14.00,2013-06-30 10:26:00,
2013-06-30 06:31:00,60.1,58.3,28.85,NNE,32,0.0,0.0,94,0.00,,,0.00,VWS V14.00,2013-06-30 10:31:00,
2013-06-30 06:36:00,60.3,58.5,28.85,NNE,32,0.0,0.0,94,0.00,,,0.00,VWS V14.00,2013-06-30 10:36:00,
2013-06-30 06:41:00,60.3,58.2,28.85,NNE,32,0.0,0.0,93,0.00,,,0.00,VWS V14.00,2013-06-30 10:41:00,
2013-06-30 06:46:00,60.4,58.4,28.85,NNE,32,0.0,0.0,93,0.00,,,0.00,VWS V14.00,2013-06-30 10:46:00,
2013-06-30 06:51:00,60.4,58.4,28.85,NNE,32,0.0,0.0,93,0.00,,,0.00,VWS V14.00,2013-06-30 10:51:00,
2013-06-30 06:56:00,60.6,58.9,28.85,NNE,32,0.0,0.0,94,0.00,,,0.00,VWS V14.00,2013-06-30 10:56:00,
2013-06-30 07:01:00,60.8,58.8,28.85,NNE,32,0.0,0.0,93,0.00,,,0.00,VWS V14.00,2013-06-30 11:01:00,
2013-06-30 07:06:00,61.0,59.2,28.85,NNE,32,0.0,0.0,94,0.00,,,0.00,VWS V14.00,2013-06-30 11:06:00,
2013-06-30 07:11:00,61.2,59.4,28.85,NNE,32,0.0,0.0,94,0.00,,,0.00,VWS V14.00,2013-06-30 11:11:00,
2013-06-30 07:16:00,61.3,59.6,28.88,NNE,32,0.0,0.0,94,0.00,,,0.00,VWS V14.00,2013-06-30 11:16:00,
2013-06-30 07:21:00,61.5,59.8,28.88,NNE,32,0.0,0.0,94,0.00,,,0.00,VWS V14.00,2013-06-30 11:21:00,
2013-06-30 07:26:00,61.9,60.1,28.88,NNE,32,0.0,0.0,94,0.00,,,0.00,VWS V14.00,2013-06-30 11:26:00,
2013-06-30 07:31:00,62.1,60.3,28.88,NNE,32,0.0,0.0,94,0.00,,,0.00,VWS V14.00,2013-06-30 11:31:00,
2013-06-30 07:36:00,62.2,60.5,28.88,NNE,32,0.0,0.0,94,0.00,,,0.00,VWS V14.00,2013-06-30 11:36:00,
2013-06-30 07:41:00,62.4,60.7,28.88,NNE,32,0.0,0.0,94,0.00,,,0.00,VWS V14.00,2013-06-30 11:41:00,
2013-06-30 07:46:00,62.6,60.5,28.88,NNE,32,0.0,0.0,93,0.00,,,0.00,VWS V14.00,2013-06-30 11:46:00,
2013-06-30 07:51:00,63.0,60.9,28.88,NNE,32,0.0,0.0,93,0.00,,,0.00,VWS V14.00,2013-06-30 11:51:00,
2013-06-30 07:56:00,63.1,60.8,28.88,NNE,32,0.0,0.0,92,0.00,,,0.00,VWS V14.00,2013-06-30 11:56:00,
2013-06-30 08:01:00,63.5,61.1,28.88,NNE,32,0.0,0.0,92,0.00,,,0.00,VWS V14.00,2013-06-30 12:01:00,
2013-06-30 08:06:00,63.7,61.3,28.88,NNE,32,0.0,0.0,92,0.00,,,0.00,VWS V14.00,2013-06-30 12:06:00,
2013-06-30 08:11:00,63.9,61.5,28.88,NNE,32,0.0,0.0,92,0.00,,,0.00,VWS V14.00,2013-06-30 12:11:00,
2013-06-30 08:16:00,64.0,61.4,28.88,NNE,32,0.0,0.0,91,0.00,,,0.00,VWS V14.00,2013-06-30 12:16:00,
2013-06-30 08:21:00,64.2,61.5,28.88,NNE,32,0.0,0.0,91,0.00,,,0.00,VWS V14.00,2013-06-30 12:21:00,
2013-06-30 08:26:00,64.4,61.4,28.88,NNE,32,0.0,0.0,90,0.00,,,0.00,VWS V14.00,2013-06-30 12:26:00,
2013-06-30 08:31:00,64.6,61.3,28.88,NNE,32,0.0,0.0,89,0.00,,,0.00,VWS V14.00,2013-06-30 12:31:00,
2013-06-30 08:36:00,64.6,60.6,28.88,NNE,32,0.0,0.0,87,0.00,,,0.00,VWS V14.00,2013-06-30 12:36:00,
2013-06-30 08:41:00,64.9,61.0,28.88,NNE,32,0.0,0.0,87,0.00,,,0.00,VWS V14.00,2013-06-30 12:41:00,
2013-06-30 08:46:00,65.1,61.2,28.88,NNE,32,0.0,0.0,87,0.00,,,0.00,VWS V14.00,2013-06-30 12:46:00,
2013-06-30 08:51:00,65.5,61.2,28.88,NNE,31,0.0,0.0,86,0.00,,,0.00,VWS V14.00,2013-06-30 12:51:00,
2013-06-30 08:56:00,65.7,60.0,28.88,NNE,32,0.0,3.6,82,0.00,,,0.00,VWS V14.00,2013-06-30 12:56:00,
2013-06-30 09:01:00,66.0,60.0,28.88,NNE,32,0.0,0.0,81,0.00,,,0.00,VWS V14.00,2013-06-30 13:01:00,
2013-06-30 09:06:00,66.6,60.2,28.88,North,10,3.1,4.0,80,0.00,,,0.00,VWS V14.00,2013-06-30 13:06:00,
2013-06-30 09:11:00,66.7,60.0,28.88,North,2,2.7,4.9,79,0.00,,,0.00,VWS V14.00,2013-06-30 13:11:00,
2013-06-30 09:16:00,67.3,60.5,28.88,NE,37,3.6,4.9,79,0.00,,,0.00,VWS V14.00,2013-06-30 13:16:00,
2013-06-30 09:21:00,67.6,60.5,28.88,NNE,24,3.6,7.2,78,0.00,,,0.00,VWS V14.00,2013-06-30 13:21:00,
2013-06-30 09:26:00,67.8,60.3,28.88,NE,43,0.0,8.1,77,0.00,,,0.00,VWS V14.00,2013-06-30 13:26:00,
2013-06-30 09:31:00,68.2,60.0,28.88,NNE,24,3.1,4.0,75,0.00,,,0.00,VWS V14.00,2013-06-30 13:31:00,
2013-06-30 09:36:00,68.4,59.4,28.88,ENE,59,4.0,8.1,73,0.00,,,0.00,VWS V14.00,2013-06-30 13:36:00,
2013-06-30 09:41:00,68.5,59.9,28.88,North,8,0.0,8.1,74,0.00,,,0.00,VWS V14.00,2013-06-30 13:41:00,
2013-06-30 09:46:00,68.9,60.3,28.91,ENE,60,0.0,8.1,74,0.00,,,0.00,VWS V14.00,2013-06-30 13:46:00,
2013-06-30 09:51:00,69.3,60.2,28.91,NNE,18,0.0,8.1,73,0.00,,,0.00,VWS V14.00,2013-06-30 13:51:00,
2013-06-30 09:56:00,69.6,60.2,28.91,NNE,26,2.2,8.1,72,0.00,,,0.00,VWS V14.00,2013-06-30 13:56:00,
2013-06-30 10:01:00,69.6,60.2,28.91,NNE,32,0.0,3.1,72,0.00,,,0.00,VWS V14.00,2013-06-30 14:01:00,
2013-06-30 10:06:00,70.3,60.9,28.91,NE,55,0.0,3.1,72,0.00,,,0.00,VWS V14.00,2013-06-30 14:06:00,
2013-06-30 10:11:00,70.5,60.7,28.91,NNE,27,3.6,5.4,71,0.00,,,0.00,VWS V14.00,2013-06-30 14:11:00,
2013-06-30 10:16:00,70.2,59.1,28.91,NNE,20,2.7,5.4,68,0.00,,,0.00,VWS V14.00,2013-06-30 14:16:00,
2013-06-30 10:21:00,70.3,60.1,28.91,NE,34,3.1,5.4,70,0.00,,,0.00,VWS V14.00,2013-06-30 14:21:00,
2013-06-30 10:26:00,70.3,59.7,28.91,NE,51,2.7,5.4,69,0.00,,,0.00,VWS V14.00,2013-06-30 14:26:00,
2013-06-30 10:31:00,70.5,59.9,28.91,NE,48,0.0,3.6,69,0.00,,,0.00,VWS V14.00,2013-06-30 14:31:00,
2013-06-30 10:36:00,70.9,61.0,28.91,NNE,19,0.0,3.6,71,0.00,,,0.00,VWS V14.00,2013-06-30 14:36:00,
2013-06-30 10:41:00,71.1,60.0,28.91,NE,37,0.0,3.6,68,0.00,,,0.00,VWS V14.00,2013-06-30 14:41:00,
2013-06-30 10:46:00,71.2,59.3,28.91,NNE,18,0.0,5.8,66,0.00,,,0.00,VWS V14.00,2013-06-30 14:46:00,
2013-06-30 10:51:00,71.8,60.2,28.91,NNE,25,0.0,5.8,67,0.00,,,0.00,VWS V14.00,2013-06-30 14:51:00,
2013-06-30 10:56:00,71.8,59.0,28.91,North,0,0.0,8.3,64,0.00,,,0.00,VWS V14.00,2013-06-30 14:56:00,
2013-06-30 11:01:00,71.4,55.9,28.91,SE,141,5.4,7.6,58,0.00,,,0.00,VWS V14.00,2013-06-30 15:01:00,
2013-06-30 11:06:00,71.6,57.0,28.91,NNE,19,2.7,7.6,60,0.00,,,0.00,VWS V14.00,2013-06-30 15:06:00,
2013-06-30 11:11:00,71.8,58.5,28.91,ENE,57,2.7,7.6,63,0.00,,,0.00,VWS V14.00,2013-06-30 15:11:00,
2013-06-30 11:16:00,72.1,58.9,28.91,ESE,106,0.0,7.6,63,0.00,,,0.00,VWS V14.00,2013-06-30 15:16:00,
2013-06-30 11:21:00,72.9,60.4,28.91,ESE,109,0.0,7.6,65,0.00,,,0.00,VWS V14.00,2013-06-30 15:21:00,
2013-06-30 11:26:00,72.0,56.4,28.91,NNE,28,5.4,8.3,58,0.00,,,0.00,VWS V14.00,2013-06-30 15:26:00,
2013-06-30 11:32:00,71.6,55.6,28.91,East,85,2.2,6.3,57,0.00,,,0.00,VWS V14.00,2013-06-30 15:32:00,
2013-06-30 11:37:00,72.1,58.0,28.91,NNE,27,0.0,6.3,61,0.00,,,0.00,VWS V14.00,2013-06-30 15:37:00,
2013-06-30 11:42:00,72.5,58.8,28.91,ESE,122,0.0,6.3,62,0.00,,,0.00,VWS V14.00,2013-06-30 15:42:00,
2013-06-30 11:47:00,72.3,57.2,28.91,NE,53,2.7,6.3,59,0.00,,,0.00,VWS V14.00,2013-06-30 15:47:00,
2013-06-30 11:52:00,72.1,57.0,28.91,NE,35,0.0,6.7,59,0.00,,,0.00,VWS V14.00,2013-06-30 15:52:00,
2013-06-30 11:57:00,72.1,57.0,28.91,NE,46,0.0,6.7,59,0.00,,,0.00,VWS V14.00,2013-06-30 15:57:00,
2013-06-30 12:02:00,72.0,55.4,28.94,NNE,30,3.1,4.9,56,0.00,,,0.00,VWS V14.00,2013-06-30 16:02:00,
2013-06-30 12:07:00,72.1,55.1,28.94,NE,34,2.7,5.8,55,0.00,,,0.00,VWS V14.00,2013-06-30 16:07:00,
2013-06-30 12:12:00,72.7,57.1,28.94,ESE,119,0.0,6.3,58,0.00,,,0.00,VWS V14.00,2013-06-30 16:12:00,
2013-06-30 12:17:00,72.9,57.2,28.94,SE,129,0.0,6.3,58,0.00,,,0.00,VWS V14.00,2013-06-30 16:17:00,
2013-06-30 12:22:00,72.9,55.8,28.94,NE,54,4.0,6.3,55,0.00,,,0.00,VWS V14.00,2013-06-30 16:22:00,
2013-06-30 12:27:00,73.2,54.6,28.94,NE,48,6.3,7.6,52,0.00,,,0.00,VWS V14.00,2013-06-30 16:27:00,
2013-06-30 12:32:00,73.4,55.8,28.94,ENE,58,6.3,6.3,54,0.00,,,0.00,VWS V14.00,2013-06-30 16:32:00,
2013-06-30 12:37:00,73.6,56.4,28.94,NNE,32,3.6,8.3,55,0.00,,,0.00,VWS V14.00,2013-06-30 16:37:00,
2013-06-30 12:42:00,73.6,55.4,28.94,ENE,61,0.0,8.3,53,0.00,,,0.00,VWS V14.00,2013-06-30 16:42:00,
2013-06-30 12:47:00,75.0,57.3,28.94,SE,134,0.0,8.3,54,0.00,,,0.00,VWS V14.00,2013-06-30 16:47:00,
2013-06-30 12:52:00,75.0,55.7,28.94,NE,50,3.6,8.3,51,0.00,,,0.00,VWS V14.00,2013-06-30 16:52:00,
2013-06-30 12:57:00,76.8,59.5,28.94,NE,39,2.2,8.3,55,0.00,,,0.00,VWS V14.00,2013-06-30 16:57:00,
2013-06-30 13:02:00,77.7,58.7,28.94,East,96,0.0,4.9,52,0.00,,,0.00,VWS V14.00,2013-06-30 17:02:00,
2013-06-30 13:07:00,77.5,56.9,28.94,NNE,32,0.0,7.6,49,0.00,,,0.00,VWS V14.00,2013-06-30 17:07:00,
2013-06-30 13:12:00,78.6,59.0,28.94,North,11,2.7,7.6,51,0.00,,,0.00,VWS V14.00,2013-06-30 17:12:00,
2013-06-30 13:17:00,79.0,58.2,28.94,East,89,4.9,7.6,49,0.00,,,0.00,VWS V14.00,2013-06-30 17:17:00,
2013-06-30 13:22:00,79.2,57.8,28.94,North,357,3.1,8.1,48,0.00,,,0.00,VWS V14.00,2013-06-30 17:22:00,
2013-06-30 13:27:00,77.9,54.9,28.94,East,99,6.3,8.1,45,0.00,,,0.00,VWS V14.00,2013-06-30 17:27:00,
2013-06-30 13:32:00,78.4,57.1,28.94,East,86,3.1,5.8,48,0.00,,,0.00,VWS V14.00,2013-06-30 17:32:00,
2013-06-30 13:37:00,77.7,55.9,28.94,North,357,0.0,8.1,47,0.00,,,0.00,VWS V14.00,2013-06-30 17:37:00,
2013-06-30 13:42:00,78.1,57.4,28.94,NE,45,3.6,8.1,49,0.00,,,0.00,VWS V14.00,2013-06-30 17:42:00,
2013-06-30 13:47:00,77.9,55.5,28.94,NNE,33,2.2,8.1,46,0.00,,,0.00,VWS V14.00,2013-06-30 17:47:00,
2013-06-30 13:52:00,78.1,57.4,28.94,SE,130,4.5,10.1,49,0.00,,,0.00,VWS V14.00,2013-06-30 17:52:00,
2013-06-30 13:57:00,77.5,56.9,28.94,NE,40,0.0,10.1,49,0.00,,,0.00,VWS V14.00,2013-06-30 17:57:00,
2013-06-30 14:02:00,77.4,53.1,28.94,NNE,29,10.5,12.3,43,0.00,,,0.00,VWS V14.00,2013-06-30 18:02:00,
2013-06-30 14:07:00,77.5,53.9,28.94,NNE,16,4.9,12.3,44,0.00,,,0.00,VWS V14.00,2013-06-30 18:07:00,
2013-06-30 14:12:00,79.3,56.2,28.94,East,91,7.2,12.3,45,0.00,,,0.00,VWS V14.00,2013-06-30 18:12:00,
2013-06-30 14:17:00,79.9,56.0,28.94,North,8,4.0,12.8,44,0.00,,,0.00,VWS V14.00,2013-06-30 18:17:00,
2013-06-30 14:22:00,79.2,54.1,28.94,North,3,3.6,12.8,42,0.00,,,0.00,VWS V14.00,2013-06-30 18:22:00,
2013-06-30 14:27:00,80.8,58.1,28.94,North,1,5.4,12.8,46,0.00,,,0.00,VWS V14.00,2013-06-30 18:27:00,
2013-06-30 14:32:00,80.6,56.1,28.94,NNE,32,0.0,11.0,43,0.00,,,0.00,VWS V14.00,2013-06-30 18:32:00,
2013-06-30 14:37:00,80.8,56.9,28.94,ESE,114,0.0,11.0,44,0.00,,,0.00,VWS V14.00,2013-06-30 18:37:00,
2013-06-30 14:42:00,80.2,54.4,28.94,NNE,12,4.0,11.0,41,0.00,,,0.00,VWS V14.00,2013-06-30 18:42:00,
2013-06-30 14:47:00,81.3,57.3,28.94,NE,39,2.7,11.0,44,0.00,,,0.00,VWS V14.00,2013-06-30 18:47:00,
2013-06-30 14:52:00,81.3,57.3,28.94,NE,41,0.0,11.0,44,0.00,,,0.00,VWS V14.00,2013-06-30 18:52:00,
2013-06-30 14:57:00,81.7,57.0,28.94,NNE,21,8.7,11.0,43,0.00,,,0.00,VWS V14.00,2013-06-30 18:57:00,
2013-06-30 15:02:00,81.7,56.4,28.94,SE,131,4.0,4.9,42,0.00,,,0.00,VWS V14.00,2013-06-30 19:02:00,
2013-06-30 15:07:00,81.7,57.0,28.94,NE,44,2.7,8.3,43,0.00,,,0.00,VWS V14.00,2013-06-30 19:07:00,
2013-06-30 15:12:00,81.3,55.4,28.91,NE,38,8.3,8.3,41,0.00,,,0.00,VWS V14.00,2013-06-30 19:12:00,
2013-06-30 15:17:00,82.2,58.2,28.91,ESE,112,3.1,9.6,44,0.00,,,0.00,VWS V14.00,2013-06-30 19:17:00,
2013-06-30 15:22:00,80.6,53.4,28.91,NNE,22,8.7,12.3,39,0.00,,,0.00,VWS V14.00,2013-06-30 19:22:00,
2013-06-30 15:27:00,79.7,53.9,28.91,NE,38,4.0,13.2,41,0.00,,,0.00,VWS V14.00,2013-06-30 19:27:00,
2013-06-30 15:32:00,81.9,57.8,28.94,SE,124,4.9,4.9,44,0.00,,,0.00,VWS V14.00,2013-06-30 19:32:00,
2013-06-30 15:37:00,82.2,57.5,28.94,NNE,29,4.9,10.5,43,0.00,,,0.00,VWS V14.00,2013-06-30 19:37:00,
2013-06-30 15:42:00,79.3,54.3,28.94,NE,43,4.9,10.5,42,0.00,,,0.00,VWS V14.00,2013-06-30 19:42:00,
2013-06-30 15:47:00,81.0,56.4,28.91,NE,39,2.2,10.5,43,0.00,,,0.00,VWS V14.00,2013-06-30 19:47:00,
2013-06-30 15:52:00,81.7,56.4,28.91,NE,48,0.0,10.5,42,0.00,,,0.00,VWS V14.00,2013-06-30 19:52:00,
2013-06-30 15:57:00,81.0,55.7,28.91,ESE,121,0.0,10.5,42,0.00,,,0.00,VWS V14.00,2013-06-30 19:57:00,
2013-06-30 16:02:00,80.4,53.9,28.91,NNE,28,0.0,8.7,40,0.00,,,0.00,VWS V14.00,2013-06-30 20:02:00,
2013-06-30 16:07:00,81.1,54.5,28.91,East,79,2.2,8.7,40,0.00,,,0.00,VWS V14.00,2013-06-30 20:07:00,
2013-06-30 16:12:00,80.2,54.4,28.91,NNE,32,4.0,8.7,41,0.00,,,0.00,VWS V14.00,2013-06-30 20:12:00,
2013-06-30 16:17:00,80.4,53.9,28.94,NNE,20,7.6,13.2,40,0.00,,,0.00,VWS V14.00,2013-06-30 20:17:00,
2013-06-30 16:22:00,80.1,53.6,28.94,NNE,32,8.1,13.2,40,0.00,,,0.00,VWS V14.00,2013-06-30 20:22:00,
2013-06-30 16:27:00,79.9,54.1,28.94,NNE,29,3.1,13.2,41,0.00,,,0.00,VWS V14.00,2013-06-30 20:27:00,
2013-06-30 16:32:00,80.4,53.9,28.94,North,0,7.2,8.1,40,0.00,,,0.00,VWS V14.00,2013-06-30 20:32:00,
2013-06-30 16:37:00,79.7,55.2,28.94,SE,145,3.6,11.4,43,0.00,,,0.00,VWS V14.00,2013-06-30 20:37:00,
2013-06-30 16:42:00,80.6,55.4,28.94,NE,44,0.0,11.4,42,0.00,,,0.00,VWS V14.00,2013-06-30 20:42:00,
2013-06-30 16:47:00,80.2,55.7,28.94,North,4,3.1,11.4,43,0.00,,,0.00,VWS V14.00,2013-06-30 20:47:00,
2013-06-30 16:52:00,79.9,53.4,28.94,ENE,70,6.3,15.0,40,0.00,,,0.00,VWS V14.00,2013-06-30 20:52:00,
2013-06-30 16:57:00,79.2,52.1,28.94,NNE,30,3.6,15.0,39,0.00,,,0.00,VWS V14.00,2013-06-30 20:57:00,
2013-06-30 17:02:00,78.8,51.1,28.94,NNE,29,10.1,12.8,38,0.00,,,0.00,VWS V14.00,2013-06-30 21:02:00,
2013-06-30 17:07:00,79.2,53.5,28.94,NNW,334,2.7,12.8,41,0.00,,,0.00,VWS V14.00,2013-06-30 21:07:00,
2013-06-30 17:12:00,79.9,53.4,28.94,NNE,33,5.4,12.8,40,0.00,,,0.00,VWS V14.00,2013-06-30 21:12:00,
2013-06-30 17:17:00,79.0,52.6,28.94,SE,145,6.7,12.8,40,0.00,,,0.00,VWS V14.00,2013-06-30 21:17:00,
2013-06-30 17:22:00,78.3,53.3,28.94,NNW,341,0.0,12.8,42,0.00,,,0.00,VWS V14.00,2013-06-30 21:22:00,
2013-06-30 17:27:00,77.2,52.3,28.94,ENE,73,0.0,12.8,42,0.00,,,0.00,VWS V14.00,2013-06-30 21:27:00,
2013-06-30 17:32:00,78.6,54.9,28.94,NNE,31,5.8,5.8,44,0.00,,,0.00,VWS V14.00,2013-06-30 21:32:00,
2013-06-30 17:37:00,78.1,53.2,28.94,North,357,5.4,12.3,42,0.00,,,0.00,VWS V14.00,2013-06-30 21:37:00,
2013-06-30 17:42:00,78.6,54.9,28.94,ENE,59,0.0,12.3,44,0.00,,,0.00,VWS V14.00,2013-06-30 21:42:00,
2013-06-30 17:47:00,77.2,53.6,28.94,NNE,30,2.7,12.3,44,0.00,,,0.00,VWS V14.00,2013-06-30 21:47:00,
2013-06-30 17:52:00,77.4,53.8,28.94,NE,41,9.6,12.3,44,0.00,,,0.00,VWS V14.00,2013-06-30 21:52:00,
2013-06-30 17:57:00,77.5,54.5,28.94,NE,54,10.1,12.3,45,0.00,,,0.00,VWS V14.00,2013-06-30 21:57:00,
2013-06-30 18:02:00,77.9,54.3,28.94,NNE,25,3.1,5.4,44,0.00,,,0.00,VWS V14.00,2013-06-30 22:02:00,
2013-06-30 18:07:00,77.4,52.5,28.94,NE,42,11.9,11.9,42,0.00,,,0.00,VWS V14.00,2013-06-30 22:07:00,
2013-06-30 18:13:00,77.2,52.3,28.94,NNE,30,8.3,15.0,42,0.00,,,0.00,VWS V14.00,2013-06-30 22:13:00,
2013-06-30 18:18:00,76.6,52.5,28.94,NNW,336,5.4,15.0,43,0.00,,,0.00,VWS V14.00,2013-06-30 22:18:00,
2013-06-30 18:23:00,76.8,52.7,28.94,NNE,12,8.3,15.0,43,0.00,,,0.00,VWS V14.00,2013-06-30 22:23:00,
2013-06-30 18:28:00,76.1,52.6,28.94,NNW,336,3.1,15.0,44,0.00,,,0.00,VWS V14.00,2013-06-30 22:28:00,
2013-06-30 18:33:00,75.0,52.3,28.94,NNE,21,5.8,10.5,45,0.00,,,0.00,VWS V14.00,2013-06-30 22:33:00,
2013-06-30 18:38:00,74.5,52.4,28.94,NNE,23,4.0,11.0,46,0.00,,,0.00,VWS V14.00,2013-06-30 22:38:00,
2013-06-30 18:43:00,74.3,52.8,28.94,NNE,29,4.0,11.0,47,0.00,,,0.00,VWS V14.00,2013-06-30 22:43:00,
2013-06-30 18:48:00,73.8,53.4,28.94,NE,34,3.6,11.0,49,0.00,,,0.00,VWS V14.00,2013-06-30 22:48:00,
2013-06-30 18:53:00,73.4,53.1,28.94,NNE,28,4.0,11.0,49,0.00,,,0.00,VWS V14.00,2013-06-30 22:53:00,
2013-06-30 18:58:00,73.6,53.3,28.94,NE,35,0.0,11.0,49,0.00,,,0.00,VWS V14.00,2013-06-30 22:58:00,
2013-06-30 19:03:00,73.8,52.9,28.94,NNE,25,4.0,10.5,48,0.00,,,0.00,VWS V14.00,2013-06-30 23:03:00,
2013-06-30 19:08:00,73.6,53.8,28.94,ESE,113,6.3,10.5,50,0.00,,,0.00,VWS V14.00,2013-06-30 23:08:00,
2013-06-30 19:13:00,73.4,53.1,28.94,NNE,19,5.4,11.0,49,0.00,,,0.00,VWS V14.00,2013-06-30 23:13:00,
2013-06-30 19:18:00,73.4,54.2,28.94,NE,56,3.1,11.0,51,0.00,,,0.00,VWS V14.00,2013-06-30 23:18:00,
2013-06-30 19:23:00,73.2,54.6,28.94,NNE,21,8.7,11.0,52,0.00,,,0.00,VWS V14.00,2013-06-30 23:23:00,
2013-06-30 19:28:00,73.0,54.9,28.97,NE,43,2.7,11.0,53,0.00,,,0.00,VWS V14.00,2013-06-30 23:28:00,
2013-06-30 19:33:00,72.9,55.3,28.97,ENE,58,2.7,8.1,54,0.00,,,0.00,VWS V14.00,2013-06-30 23:33:00,
2013-06-30 19:38:00,72.7,55.6,28.97,East,96,5.4,8.7,55,0.00,,,0.00,VWS V14.00,2013-06-30 23:38:00,
2013-06-30 19:43:00,72.5,54.4,28.97,NE,41,11.0,11.0,53,0.00,,,0.00,VWS V14.00,2013-06-30 23:43:00,
2013-06-30 19:48:00,72.1,55.1,28.97,NNE,33,4.0,11.0,55,0.00,,,0.00,VWS V14.00,2013-06-30 23:48:00,
2013-06-30 19:53:00,72.1,55.1,28.97,NNE,33,6.3,11.0,55,0.00,,,0.00,VWS V14.00,2013-06-30 23:53:00,
2013-06-30 19:58:00,72.0,54.9,28.97,NNE,28,4.9,11.0,55,0.00,,,0.00,VWS V14.00,2013-06-30 23:58:00,
2013-06-30 20:03:00,71.6,55.6,28.97,NE,34,8.7,8.7,57,0.00,,,0.00,VWS V14.00,2013-07-01 00:03:00,
2013-06-30 20:08:00,71.6,55.1,28.97,NNE,18,4.0,12.8,56,0.00,,,0.00,VWS V14.00,2013-07-01 00:08:00,
2013-06-30 20:13:00,71.4,55.4,28.97,NNE,28,6.3,12.8,57,0.00,,,0.00,VWS V14.00,2013-07-01 00:13:00,
2013-06-30 20:18:00,71.4,55.4,28.97,ENE,57,2.7,12.8,57,0.00,,,0.00,VWS V14.00,2013-07-01 00:18:00,
2013-06-30 20:23:00,71.2,55.2,28.97,NE,34,8.7,12.8,57,0.00,,,0.00,VWS V14.00,2013-07-01 00:23:00,
2013-06-30 20:28:00,71.1,55.1,28.97,NE,38,0.0,12.8,57,0.00,,,0.00,VWS V14.00,2013-07-01 00:28:00,
2013-06-30 20:33:00,70.9,54.9,28.97,NNE,19,9.2,10.5,57,0.00,,,0.00,VWS V14.00,2013-07-01 00:33:00,
2013-06-30 20:38:00,70.7,55.2,28.97,NE,53,6.3,10.5,58,0.00,,,0.00,VWS V14.00,2013-07-01 00:38:00,
2013-06-30 20:43:00,70.7,55.2,28.97,North,357,0.0,10.5,58,0.00,,,0.00,VWS V14.00,2013-07-01 00:43:00,
2013-06-30 20:48:00,70.5,55.5,28.97,NNE,22,3.1,10.5,59,0.00,,,0.00,VWS V14.00,2013-07-01 00:48:00,
2013-06-30 20:53:00,70.2,55.2,28.97,NE,44,3.6,10.5,59,0.00,,,0.00,VWS V14.00,2013-07-01 00:53:00,
2013-06-30 20:58:00,70.0,55.0,28.97,NE,44,4.0,10.5,59,0.00,,,0.00,VWS V14.00,2013-07-01 00:58:00,
2013-06-30 21:03:00,69.8,54.8,28.97,NE,42,0.0,6.3,59,0.00,,,0.00,VWS V14.00,2013-07-01 01:03:00,
2013-06-30 21:08:00,69.6,55.1,28.97,NNE,25,2.7,7.6,60,0.00,,,0.00,VWS V14.00,2013-07-01 01:08:00,
2013-06-30 21:13:00,69.3,55.2,28.97,ENE,59,0.0,7.6,61,0.00,,,0.00,VWS V14.00,2013-07-01 01:13:00,
2013-06-30 21:18:00,69.1,55.1,28.97,NNE,31,5.4,7.6,61,0.00,,,0.00,VWS V14.00,2013-07-01 01:18:00,
2013-06-30 21:23:00,68.9,54.9,28.97,NE,45,0.0,7.6,61,0.00,,,0.00,VWS V14.00,2013-07-01 01:23:00,
2013-06-30 21:28:00,68.5,55.0,29.00,NNE,21,5.8,7.6,62,0.00,,,0.00,VWS V14.00,2013-07-01 01:28:00,
2013-06-30 21:33:00,68.5,55.0,29.00,NE,38,2.7,5.4,62,0.00,,,0.00,VWS V14.00,2013-07-01 01:33:00,
2013-06-30 21:38:00,68.2,55.1,29.00,NNE,31,0.0,5.4,63,0.00,,,0.00,VWS V14.00,2013-07-01 01:38:00,
2013-06-30 21:43:00,67.8,55.6,29.00,NE,34,0.0,5.4,65,0.00,,,0.00,VWS V14.00,2013-07-01 01:43:00,
2013-06-30 21:48:00,67.6,55.5,29.00,NE,49,0.0,5.4,65,0.00,,,0.00,VWS V14.00,2013-07-01 01:48:00,
2013-06-30 21:53:00,67.3,55.5,29.00,NNE,30,5.4,5.8,66,0.00,,,0.00,VWS V14.00,2013-07-01 01:53:00,
2013-06-30 21:58:00,67.3,55.5,29.00,NNE,25,5.4,5.8,66,0.00,,,0.00,VWS V14.00,2013-07-01 01:58:00,
2013-06-30 22:03:00,67.3,55.5,29.00,NE,42,3.6,5.8,66,0.00,,,0.00,VWS V14.00,2013-07-01 02:03:00,
2013-06-30 22:08:00,67.1,55.4,29.00,NNE,28,3.6,6.3,66,0.00,,,0.00,VWS V14.00,2013-07-01 02:08:00,
2013-06-30 22:13:00,66.9,55.2,29.00,NE,47,4.9,6.3,66,0.00,,,0.00,VWS V14.00,2013-07-01 02:13:00,
2013-06-30 22:18:00,66.7,55.0,29.00,ENE,58,0.0,6.3,66,0.00,,,0.00,VWS V14.00,2013-07-01 02:18:00,
2013-06-30 22:23:00,66.4,55.1,29.00,NNE,30,2.7,6.3,67,0.00,,,0.00,VWS V14.00,2013-07-01 02:23:00,
2013-06-30 22:28:00,66.2,54.9,29.00,NNE,16,0.0,6.3,67,0.00,,,0.00,VWS V14.00,2013-07-01 02:28:00,
2013-06-30 22:33:00,65.8,55.0,29.00,NNE,18,3.1,3.6,68,0.00,,,0.00,VWS V14.00,2013-07-01 02:33:00,
2013-06-30 22:38:00,65.7,55.6,29.00,NNE,29,2.2,3.6,70,0.00,,,0.00,VWS V14.00,2013-07-01 02:38:00,
2013-06-30 22:43:00,65.5,55.5,29.00,NNE,30,4.0,4.0,70,0.00,,,0.00,VWS V14.00,2013-07-01 02:43:00,
2013-06-30 22:48:00,65.1,55.5,29.00,NE,46,0.0,4.0,71,0.00,,,0.00,VWS V14.00,2013-07-01 02:48:00,
2013-06-30 22:53:00,65.1,55.1,29.00,North,11,2.2,6.3,70,0.00,,,0.00,VWS V14.00,2013-07-01 02:53:00,
2013-06-30 22:58:00,65.1,54.7,29.00,ENE,57,2.7,6.3,69,0.00,,,0.00,VWS V14.00,2013-07-01 02:58:00,
2013-06-30 23:03:00,64.8,54.4,29.00,NNE,14,0.0,2.7,69,0.00,,,0.00,VWS V14.00,2013-07-01 03:03:00,
2013-06-30 23:08:00,64.6,54.2,29.00,North,357,5.4,6.7,69,0.00,,,0.00,VWS V14.00,2013-07-01 03:08:00,
2013-06-30 23:13:00,64.8,52.7,29.00,North,8,5.8,6.7,65,0.00,,,0.00,VWS V14.00,2013-07-01 03:13:00,
2013-06-30 23:18:00,64.9,49.8,29.00,NE,37,6.3,9.2,58,0.00,,,0.00,VWS V14.00,2013-07-01 03:18:00,
2013-06-30 23:23:00,64.6,50.0,29.00,North,353,2.2,9.2,59,0.00,,,0.00,VWS V14.00,2013-07-01 03:23:00,
2013-06-30 23:28:00,64.2,50.1,29.00,NE,54,0.0,9.2,60,0.00,,,0.00,VWS V14.00,2013-07-01 03:28:00,
2013-06-30 23:33:00,64.2,50.1,29.00,NE,53,2.2,5.4,60,0.00,,,0.00,VWS V14.00,2013-07-01 03:33:00,
2013-06-30 23:38:00,63.9,49.7,29.00,NNE,30,2.7,5.4,60,0.00,,,0.00,VWS V14.00,2013-07-01 03:38:00,
2013-06-30 23:43:00,63.7,49.1,29.00,NE,41,3.1,6.3,59,0.00,,,0.00,VWS V14.00,2013-07-01 03:43:00,
2013-06-30 23:48:00,63.3,49.2,29.00,NE,37,0.0,6.3,60,0.00,,,0.00,VWS V14.00,2013-07-01 03:48:00,
2013-06-30 23:53:00,63.1,49.0,29.00,NE,56,0.0,6.3,60,0.00,,,0.00,VWS V14.00,2013-07-01 03:53:00,
2013-06-30 23:58:00,62.8,48.7,29.03,North,5,2.7,6.3,60,0.00,,,0.00,VWS V14.00,2013-07-01 03:58:00,